Time;durP1;ratioP1;P1;durP2;ratioP2;P2;SDS_P1;SDS_P2;PMS_P1;PMS_P2;Temp;Humidity;BMP_temperature;BMP_pressure;BME280_temperature;BME280_humidity;BME280_pressure;Samples;Min_cycle;Max_cycle;Signal;HPM_P1;HPM_P2
2023/08/24 00:01:16;;;;;;;8.80;4.45;;;;;;;23.81;73.22;96807.75;5014824;28;20116;-68
2023/08/24 00:03:43;;;;;;;8.82;4.35;;;;;;;23.77;74.22;96800.69;5014206;28;20050;-68
2023/08/24 00:06:10;;;;;;;7.47;4.72;;;;;;;23.66;74.74;96798.28;5017672;28;20665;-68
2023/08/24 00:08:35;;;;;;;7.55;4.93;;;;;;;23.60;75.50;96792.47;5019167;28;20495;-68
2023/08/24 00:11:01;;;;;;;12.65;5.05;;;;;;;23.53;75.86;96789.13;5018106;28;20038;-67
2023/08/24 00:13:27;;;;;;;8.20;4.35;;;;;;;23.45;76.45;96794.19;5013351;28;20030;-67
2023/08/24 00:15:54;;;;;;;6.80;4.22;;;;;;;23.44;76.67;96792.63;5012942;28;20160;-67
2023/08/24 00:18:21;;;;;;;8.07;4.20;;;;;;;23.45;76.90;96788.59;5013748;28;20076;-68
2023/08/24 00:20:48;;;;;;;10.68;4.80;;;;;;;23.50;76.35;96785.25;5012614;28;20099;-71
2023/08/24 00:23:13;;;;;;;6.22;4.50;;;;;;;23.40;77.42;96780.78;5012084;28;20041;-68
2023/08/24 00:25:40;;;;;;;8.43;4.70;;;;;;;23.40;77.35;96789.94;5014800;28;20475;-66
2023/08/24 00:28:06;;;;;;;9.68;6.05;;;;;;;23.29;78.35;96786.72;5013392;28;20534;-68
2023/08/24 00:30:32;;;;;;;9.23;5.40;;;;;;;23.35;77.96;96787.72;5017708;28;20033;-67
2023/08/24 00:32:57;;;;;;;8.73;5.25;;;;;;;23.27;78.84;96789.19;5016835;28;20057;-68
2023/08/24 00:35:23;;;;;;;10.95;5.00;;;;;;;23.24;79.03;96784.50;5013615;28;20044;-68
2023/08/24 00:37:48;;;;;;;11.95;5.38;;;;;;;23.21;79.04;96779.81;5013567;28;20041;-68
2023/08/24 00:40:13;;;;;;;7.22;4.93;;;;;;;23.18;79.39;96778.69;5013066;28;20080;-68
2023/08/24 00:42:41;;;;;;;8.02;5.13;;;;;;;23.12;79.65;96763.75;5013690;28;20044;-69
2023/08/24 00:45:09;;;;;;;9.32;5.50;;;;;;;23.12;79.84;96765.72;5013018;28;20673;-68
2023/08/24 00:47:35;;;;;;;7.75;5.07;;;;;;;23.07;80.27;96764.31;5012712;28;20034;-68
2023/08/24 00:50:01;;;;;;;8.90;5.20;;;;;;;23.05;80.28;96772.34;5015030;28;20435;-68
2023/08/24 00:52:28;;;;;;;7.38;5.05;;;;;;;23.08;80.43;96768.66;5012656;28;20040;-69
2023/08/24 00:54:54;;;;;;;10.02;5.22;;;;;;;23.02;80.84;96762.03;5012812;28;20032;-68
2023/08/24 00:57:21;;;;;;;9.02;5.20;;;;;;;22.89;81.61;96762.06;5014314;28;20399;-69
2023/08/24 00:59:47;;;;;;;7.75;5.30;;;;;;;22.81;82.25;96760.69;5011361;28;20062;-68
2023/08/24 01:02:12;;;;;;;10.10;5.20;;;;;;;22.94;81.69;96757.91;5012195;28;20026;-68
2023/08/24 01:04:41;;;;;;;11.75;5.28;;;;;;;22.86;82.34;96762.94;5012598;28;20034;-68
2023/08/24 01:07:08;;;;;;;8.00;5.23;;;;;;;22.79;82.64;96754.78;5012402;28;20026;-68
2023/08/24 01:09:33;;;;;;;11.05;5.63;;;;;;;22.76;83.35;96764.03;5013278;28;20056;-67
2023/08/24 01:12:14;;;;;;;11.43;5.07;;;;;;;22.70;83.62;96763.81;5012635;28;20415;-68
2023/08/24 01:15:03;;;;;;;11.38;5.43;;;;;;;22.66;83.97;96766.72;5013471;28;20105;-68
2023/08/24 01:17:30;;;;;;;9.15;5.20;;;;;;;22.58;84.47;96762.59;5012493;28;20030;-68
2023/08/24 01:19:58;;;;;;;9.30;5.60;;;;;;;22.55;85.01;96762.72;5012320;28;20127;-68
2023/08/24 01:22:27;;;;;;;10.38;5.35;;;;;;;22.52;85.61;96761.56;5011896;28;20061;-68
2023/08/24 01:25:07;;;;;;;11.73;5.13;;;;;;;22.53;85.61;96760.34;5012127;28;20038;-68
2023/08/24 01:27:34;;;;;;;7.38;5.38;;;;;;;22.53;85.92;96760.34;5011127;28;20037;-68
2023/08/24 01:30:02;;;;;;;9.77;5.75;;;;;;;22.58;85.75;96753.44;5012444;28;20112;-67
2023/08/24 01:32:30;;;;;;;11.95;4.93;;;;;;;22.53;86.40;96752.00;5012009;28;20144;-68
2023/08/24 01:34:55;;;;;;;8.80;6.20;;;;;;;22.52;86.81;96748.41;5012004;28;20033;-68
2023/08/24 01:37:21;;;;;;;11.63;5.68;;;;;;;22.49;87.29;96751.28;5012045;28;20405;-67
2023/08/24 01:40:00;;;;;;;419.23;287.23;;;;;;;22.53;88.21;96741.59;5012541;28;20030;-68
2023/08/24 01:42:31;;;;;;;11.35;6.95;;;;;;;22.60;87.36;96737.00;5010569;28;20099;-67
2023/08/24 01:44:59;;;;;;;10.65;5.70;;;;;;;22.65;87.99;96742.03;5012291;28;20084;-68
2023/08/24 01:47:27;;;;;;;9.50;5.57;;;;;;;22.69;86.97;96737.91;5011422;28;20026;-68
2023/08/24 01:49:52;;;;;;;8.25;5.10;;;;;;;22.65;87.30;96742.84;5011874;28;20037;-68
2023/08/24 01:52:18;;;;;;;9.50;5.30;;;;;;;22.61;87.58;96736.56;5011378;28;20040;-67
2023/08/24 01:54:43;;;;;;;9.50;5.57;;;;;;;22.59;87.72;96735.47;5012693;28;20113;-68
2023/08/24 01:57:10;;;;;;;11.52;5.20;;;;;;;22.65;87.84;96734.47;5012240;28;20048;-67
2023/08/24 01:59:35;;;;;;;7.60;5.35;;;;;;;22.57;88.06;96732.34;5012264;28;20038;-68
2023/08/24 02:02:01;;;;;;;12.07;6.10;;;;;;;22.36;88.88;96730.97;5011551;28;20104;-67
2023/08/24 02:04:26;;;;;;;8.35;5.63;;;;;;;22.20;89.91;96720.66;5011839;28;20545;-68
2023/08/24 02:06:51;;;;;;;7.95;6.10;;;;;;;22.07;91.33;96720.63;5011952;28;20030;-67
2023/08/24 02:09:17;;;;;;;10.20;5.57;;;;;;;21.98;91.90;96715.69;5011988;28;20030;-68
2023/08/24 02:11:42;;;;;;;9.85;5.75;;;;;;;21.86;92.59;96722.81;5017823;28;20391;-68
2023/08/24 02:14:07;;;;;;;11.35;5.40;;;;;;;21.77;93.00;96717.88;5013654;28;20029;-67
2023/08/24 02:16:33;;;;;;;9.65;5.47;;;;;;;21.73;93.80;96713.59;5016898;28;20130;-67
2023/08/24 02:18:58;;;;;;;10.52;6.00;;;;;;;;;;5013752;28;20391;-67
2023/08/24 02:21:23;;;;;;;9.47;6.00;;;;;;;21.63;94.10;96707.13;5016964;28;20034;-67
2023/08/24 02:23:49;;;;;;;11.73;6.47;;;;;;;;;;5016392;28;20026;-67
2023/08/24 02:26:14;;;;;;;9.17;5.50;;;;;;;21.76;94.69;96694.00;5014265;28;20044;-67
2023/08/24 02:28:39;;;;;;;8.77;5.60;;;;;;;21.88;95.02;96680.56;5013021;28;20280;-67
2023/08/24 02:31:05;;;;;;;7.88;5.78;;;;;;;21.91;95.60;96676.88;5011853;28;20029;-67
2023/08/24 02:33:31;;;;;;;8.60;5.63;;;;;;;21.97;95.71;96677.91;5011341;28;20553;-67
2023/08/24 02:35:57;;;;;;;9.88;5.82;;;;;;;21.94;96.06;96673.97;5010641;28;20069;-66
2023/08/24 02:38:23;;;;;;;10.40;5.90;;;;;;;21.90;96.59;96666.94;5013066;28;20112;-66
2023/08/24 02:40:49;;;;;;;8.43;5.57;;;;;;;21.86;97.22;96671.81;5014868;28;20029;-66
2023/08/24 02:43:14;;;;;;;8.18;5.70;;;;;;;21.75;98.10;96663.78;5014569;28;20108;-66
2023/08/24 02:45:39;;;;;;;8.85;5.88;;;;;;;21.58;99.22;96668.63;5014794;28;20433;-67
2023/08/24 02:48:05;;;;;;;8.80;5.97;;;;;;;21.47;100.00;96668.16;5013704;28;20030;-66
2023/08/24 02:50:31;;;;;;;36.85;19.88;;;;;;;21.36;100.00;96668.41;5013757;28;20116;-67
2023/08/24 02:52:57;;;;;;;13.57;7.90;;;;;;;21.16;100.00;96666.53;5013194;28;20030;-67
2023/08/24 02:55:24;;;;;;;14.85;6.03;;;;;;;21.05;100.00;96662.47;5014961;28;20030;-66
2023/08/24 02:57:49;;;;;;;13.82;6.63;;;;;;;21.00;100.00;96663.78;5015202;28;20101;-66
2023/08/24 03:00:15;;;;;;;8.75;6.10;;;;;;;21.10;100.00;96667.50;5014533;28;20061;-66
2023/08/24 03:02:40;;;;;;;12.73;6.60;;;;;;;21.07;100.00;96660.81;5014340;28;20038;-66
2023/08/24 03:05:06;;;;;;;9.75;6.80;;;;;;;20.80;100.00;96667.44;5013182;28;20030;-66
2023/08/24 03:07:32;;;;;;;10.13;6.28;;;;;;;20.75;100.00;96665.19;5014274;28;20061;-66
2023/08/24 03:09:57;;;;;;;11.90;6.43;;;;;;;20.68;100.00;96664.59;5014708;28;20069;-65
2023/08/24 03:12:22;;;;;;;9.23;6.50;;;;;;;20.59;100.00;96665.16;5014342;28;20053;-64
2023/08/24 03:14:52;;;;;;;10.43;6.40;;;;;;;20.57;100.00;96651.66;5014418;28;20022;-68
2023/08/24 03:17:17;;;;;;;11.57;6.80;;;;;;;20.63;100.00;96657.53;5014445;28;20034;-67
2023/08/24 03:19:42;;;;;;;10.13;6.40;;;;;;;20.77;100.00;96659.97;5014534;28;20423;-67
2023/08/24 03:22:08;;;;;;;9.60;6.28;;;;;;;20.93;100.00;96658.41;5014176;28;20029;-67
2023/08/24 03:24:33;;;;;;;9.52;6.43;;;;;;;20.90;100.00;96653.69;5014692;28;20156;-65
2023/08/24 03:26:58;;;;;;;10.52;6.35;;;;;;;20.88;100.00;96658.91;5016758;28;20038;-65
2023/08/24 03:29:24;;;;;;;10.27;6.90;;;;;;;20.88;100.00;96658.91;5015504;28;20030;-68
2023/08/24 03:31:49;;;;;;;12.77;6.50;;;;;;;20.85;100.00;96659.78;5015756;28;20572;-66
2023/08/24 03:34:15;;;;;;;12.07;6.50;;;;;;;20.84;100.00;96659.00;5015215;28;20030;-67
2023/08/24 03:36:40;;;;;;;12.85;6.20;;;;;;;20.80;100.00;96661.88;5017269;28;20414;-67
2023/08/24 03:39:06;;;;;;;10.15;6.82;;;;;;;20.70;100.00;96662.16;5016879;28;20030;-66
2023/08/24 03:41:31;;;;;;;11.07;7.00;;;;;;;20.55;100.00;96656.13;5015344;28;20510;-66
2023/08/24 03:43:57;;;;;;;10.57;6.53;;;;;;;20.56;100.00;96668.78;5013269;28;20045;-66
2023/08/24 03:46:22;;;;;;;13.77;6.90;;;;;;;20.61;100.00;96662.75;5014574;28;20030;-65
2023/08/24 03:48:48;;;;;;;9.77;6.72;;;;;;;20.66;100.00;96664.25;5013446;28;20042;-65
2023/08/24 03:51:13;;;;;;;9.10;6.75;;;;;;;20.58;100.00;96660.78;5014402;28;20030;-66
2023/08/24 03:53:38;;;;;;;10.32;6.45;;;;;;;20.53;100.00;96661.34;5014056;28;20410;-66
2023/08/24 03:56:04;;;;;;;11.52;6.78;;;;;;;20.44;100.00;96657.16;5014599;28;20029;-67
2023/08/24 03:58:29;;;;;;;11.40;7.25;;;;;;;20.47;100.00;96660.28;5014174;28;20030;-66
2023/08/24 04:00:55;;;;;;;10.45;6.97;;;;;;;20.39;100.00;96662.44;5014106;28;20037;-65
2023/08/24 04:03:20;;;;;;;15.50;7.97;;;;;;;20.08;100.00;96662.75;5013791;28;20085;-66
2023/08/24 04:05:46;;;;;;;12.27;7.80;;;;;;;19.89;100.00;96664.31;5013895;28;20464;-66
2023/08/24 04:08:12;;;;;;;13.52;7.30;;;;;;;19.74;100.00;96666.63;5014258;28;20062;-66
2023/08/24 04:10:37;;;;;;;12.35;7.15;;;;;;;19.78;100.00;96661.75;5014140;28;20041;-65
2023/08/24 04:13:03;;;;;;;8.85;7.40;;;;;;;19.93;100.00;96655.91;5013725;28;20030;-65
2023/08/24 04:15:28;;;;;;;11.82;8.48;;;;;;;19.64;100.00;96662.03;5013893;28;20026;-66
2023/08/24 04:17:54;;;;;;;11.20;8.65;;;;;;;19.31;100.00;96656.31;5013998;28;20030;-67
2023/08/24 04:20:19;;;;;;;11.65;9.07;;;;;;;19.10;100.00;96658.28;5014027;28;20037;-66
2023/08/24 04:22:45;;;;;;;12.95;8.85;;;;;;;19.05;100.00;96658.78;5013797;28;20065;-65
2023/08/24 04:25:10;;;;;;;10.48;7.97;;;;;;;19.13;100.00;96647.56;5014040;28;20038;-67
2023/08/24 04:27:37;;;;;;;15.43;8.70;;;;;;;19.22;100.00;96658.88;5014616;28;20036;-66
2023/08/24 04:30:03;;;;;;;15.05;9.52;;;;;;;19.12;100.00;96655.06;5014455;28;20038;-67
2023/08/24 04:32:28;;;;;;;12.27;9.10;;;;;;;19.05;100.00;96649.66;5012164;28;20037;-66
2023/08/24 04:34:54;;;;;;;15.82;9.18;;;;;;;19.04;100.00;96653.66;5014132;28;20022;-66
2023/08/24 04:37:19;;;;;;;16.10;9.40;;;;;;;19.04;100.00;96648.09;5014035;28;20042;-66
2023/08/24 04:39:45;;;;;;;13.15;9.65;;;;;;;19.00;100.00;96647.38;5014532;28;20126;-66
2023/08/24 04:42:10;;;;;;;18.52;9.38;;;;;;;18.91;100.00;96645.94;5014215;28;20057;-66
2023/08/24 04:44:36;;;;;;;14.77;9.70;;;;;;;18.85;100.00;96650.41;5013214;28;20097;-66
2023/08/24 04:47:02;;;;;;;12.10;9.32;;;;;;;18.93;100.00;96644.75;5012421;28;20506;-66
2023/08/24 04:49:30;;;;;;;11.20;8.02;;;;;;;19.23;100.00;96639.03;5013943;28;20034;-63
2023/08/24 04:51:55;;;;;;;11.93;8.95;;;;;;;19.53;100.00;96644.81;5012694;28;20033;-64
2023/08/24 04:54:21;;;;;;;12.50;8.65;;;;;;;19.81;100.00;96647.03;5012919;28;20030;-67
2023/08/24 04:56:46;;;;;;;13.05;8.13;;;;;;;20.07;100.00;96649.25;5013757;28;20030;-65
2023/08/24 04:59:12;;;;;;;10.02;8.23;;;;;;;20.19;100.00;96651.38;5014061;28;20026;-64
2023/08/24 05:01:37;;;;;;;11.45;7.93;;;;;;;20.30;100.00;96651.91;5013114;28;20091;-65
2023/08/24 05:04:03;;;;;;;13.25;7.88;;;;;;;20.40;100.00;96650.09;5013332;28;20064;-66
2023/08/24 05:06:28;;;;;;;12.00;7.45;;;;;;;20.40;100.00;96655.66;5014046;28;20026;-65
2023/08/24 05:08:54;;;;;;;12.20;7.72;;;;;;;20.56;100.00;96660.44;5014314;28;20069;-65
2023/08/24 05:11:30;;;;;;;10.38;7.78;;;;;;;20.81;100.00;96654.31;5013927;28;20026;-65
2023/08/24 05:13:56;;;;;;;13.40;8.35;;;;;;;20.76;100.00;96649.25;5012767;28;20114;-66
2023/08/24 05:16:22;;;;;;;19.40;8.20;;;;;;;20.61;100.00;96638.47;5012894;28;20112;-66
2023/08/24 05:18:47;;;;;;;14.82;8.07;;;;;;;20.56;100.00;96646.53;5013143;28;20034;-65
2023/08/24 05:21:12;;;;;;;12.20;7.85;;;;;;;21.08;100.00;96653.25;5011952;28;20026;-66
2023/08/24 05:23:38;;;;;;;10.43;6.93;;;;;;;21.71;100.00;96652.72;5011381;28;20029;-66
2023/08/24 05:26:03;;;;;;;12.07;7.25;;;;;;;22.27;100.00;96650.72;5012797;28;20479;-64
2023/08/24 05:28:30;;;;;;;14.30;7.05;;;;;;;22.81;100.00;96654.59;5012813;28;20168;-63
2023/08/24 05:30:56;;;;;;;10.20;7.18;;;;;;;22.23;100.00;96650.81;5014055;28;20108;-65
2023/08/24 05:33:22;;;;;;;11.50;7.93;;;;;;;22.45;100.00;96652.97;5012244;28;20041;-65
2023/08/24 05:35:50;;;;;;;12.25;7.00;;;;;;;23.15;96.95;96655.91;5011394;28;20032;-65
2023/08/24 05:38:16;;;;;;;11.35;6.35;;;;;;;23.60;92.31;96661.06;5012992;28;20033;-64
2023/08/24 05:40:47;;;;;;;10.77;6.43;;;;;;;23.67;90.68;96666.41;5012685;28;20056;-65
2023/08/24 05:43:13;;;;;;;10.77;6.22;;;;;;;23.78;90.57;96660.41;5012182;28;20448;-65
2023/08/24 05:45:44;;;;;;;11.35;5.65;;;;;;;23.98;89.11;96662.13;5013086;28;20113;-66
2023/08/24 05:48:09;;;;;;;10.95;6.75;;;;;;;24.40;86.45;96656.91;5011537;28;20137;-65
2023/08/24 05:50:37;;;;;;;11.65;6.47;;;;;;;24.94;82.81;96663.19;5012639;28;20042;-64
2023/08/24 05:53:03;;;;;;;9.32;5.72;;;;;;;25.65;78.55;96652.97;5011913;28;20045;-64
2023/08/24 05:55:28;;;;;;;11.98;5.85;;;;;;;26.12;75.07;96656.50;5012391;28;20110;-64
2023/08/24 05:57:54;;;;;;;9.00;6.07;;;;;;;25.97;75.75;96650.78;5012630;28;20034;-64
2023/08/24 06:00:22;;;;;;;10.50;6.50;;;;;;;25.83;74.69;96652.16;5012100;28;20041;-65
2023/08/24 06:02:47;;;;;;;9.80;6.72;;;;;;;23.44;88.39;96644.50;5010625;28;20030;-66
2023/08/24 06:05:12;;;;;;;8.43;5.90;;;;;;;24.54;87.46;96638.00;5013408;28;20041;-65
2023/08/24 06:07:38;;;;;;;7.97;5.80;;;;;;;26.22;76.13;96655.22;5013449;28;20048;-65
2023/08/24 06:10:04;;;;;;;10.82;5.60;;;;;;;27.59;67.91;96659.81;5011364;28;20026;-66
2023/08/24 06:12:29;;;;;;;7.80;5.57;;;;;;;28.48;61.41;96664.69;5012345;28;20096;-64
2023/08/24 06:14:54;;;;;;;10.02;5.88;;;;;;;28.07;61.97;96659.66;5016227;28;20684;-66
2023/08/24 06:17:20;;;;;;;9.52;5.68;;;;;;;28.29;61.98;96659.28;5016001;28;20030;-66
2023/08/24 06:19:45;;;;;;;12.85;5.95;;;;;;;27.75;65.02;96656.53;5016108;28;20033;-66
2023/08/24 06:22:11;;;;;;;14.48;7.70;;;;;;;26.93;67.47;96653.06;5015662;28;20623;-66
2023/08/24 06:24:36;;;;;;;11.63;7.13;;;;;;;27.06;68.34;96650.81;5015609;28;20029;-67
2023/08/24 06:27:01;;;;;;;13.38;8.82;;;;;;;26.08;72.08;96634.22;5016304;28;20399;-66
2023/08/24 06:29:28;;;;;;;11.90;6.00;;;;;;;26.62;72.95;96630.91;5015711;28;20153;-66
2023/08/24 06:31:54;;;;;;;11.02;5.85;;;;;;;26.86;71.75;96625.31;5015840;28;20026;-67
2023/08/24 06:34:20;;;;;;;9.68;5.68;;;;;;;25.87;74.84;96638.75;5016262;28;20030;-65
2023/08/24 06:36:45;;;;;;;8.82;6.60;;;;;;;25.87;74.03;96632.38;5019897;28;20664;-66
2023/08/24 06:39:10;;;;;;;9.95;6.07;;;;;;;26.67;70.13;96639.47;5015823;28;20476;-67
2023/08/24 06:41:36;;;;;;;11.48;6.47;;;;;;;26.60;69.98;96639.00;5015446;28;20041;-66
2023/08/24 06:44:02;;;;;;;12.57;6.55;;;;;;;25.51;74.55;96637.53;5017766;28;20040;-66
2023/08/24 06:46:28;;;;;;;9.75;5.95;;;;;;;26.18;72.16;96639.78;5017682;28;20101;-66
2023/08/24 06:48:54;;;;;;;14.43;6.40;;;;;;;26.18;69.81;96634.97;5017601;28;20040;-65
2023/08/24 06:51:19;;;;;;;11.63;6.20;;;;;;;27.19;66.76;96642.13;5016648;28;20397;-65
2023/08/24 06:53:46;;;;;;;12.63;6.22;;;;;;;26.64;68.09;96645.25;5015546;28;20092;-65
2023/08/24 06:56:14;;;;;;;12.07;5.88;;;;;;;26.47;69.61;96644.81;5015991;28;20426;-65
2023/08/24 06:58:39;;;;;;;10.90;5.40;;;;;;;28.42;61.53;96650.53;5015778;28;20033;-66
2023/08/24 07:01:06;;;;;;;13.23;5.40;;;;;;;28.04;61.79;96657.84;5015605;28;20500;-66
2023/08/24 07:03:35;;;;;;;15.02;5.97;;;;;;;29.78;55.67;96650.31;5015286;28;20030;-66
2023/08/24 07:06:00;;;;;;;14.87;6.00;;;;;;;29.42;56.23;96658.09;5015130;28;20471;-66
2023/08/24 07:08:25;;;;;;;12.77;6.07;;;;;;;28.25;60.14;96650.25;5015369;28;20053;-63
2023/08/24 07:10:51;;;;;;;9.75;6.10;;;;;;;29.76;55.72;96646.44;5015012;28;20034;-66
2023/08/24 07:13:16;;;;;;;8.02;5.05;;;;;;;31.53;51.34;96650.81;5015201;28;20475;-66
2023/08/24 07:15:42;;;;;;;12.73;5.55;;;;;;;32.98;45.20;96662.81;5013905;28;20056;-68
2023/08/24 07:18:08;;;;;;;12.82;5.70;;;;;;;33.79;43.12;96664.88;5015122;28;20037;-67
2023/08/24 07:20:35;;;;;;;13.90;5.70;;;;;;;31.89;46.65;96656.84;5014858;28;20034;-68
2023/08/24 07:23:00;;;;;;;13.27;5.72;;;;;;;31.55;49.11;96656.78;5014596;28;20474;-67
2023/08/24 07:25:27;;;;;;;9.18;4.97;;;;;;;32.67;46.31;96661.84;5014075;28;20041;-66
2023/08/24 07:27:57;;;;;;;9.60;5.07;;;;;;;33.20;44.92;96659.16;5014910;28;20029;-66
2023/08/24 07:30:23;;;;;;;15.75;5.40;;;;;;;31.13;48.51;96650.63;5014774;28;20487;-66
2023/08/24 07:32:48;;;;;;;13.70;5.55;;;;;;;30.97;50.75;96646.47;5014620;28;20080;-67
2023/08/24 07:35:14;;;;;;;11.38;5.40;;;;;;;33.18;45.64;96649.63;5014754;28;20030;-67
2023/08/24 07:37:40;;;;;;;10.15;5.47;;;;;;;33.93;42.23;96654.47;5014649;28;20033;-65
2023/08/24 07:40:08;;;;;;;8.65;4.38;;;;;;;35.08;41.27;96653.75;5014886;28;20061;-67
2023/08/24 07:42:43;;;;;;;17.10;5.50;;;;;;;33.44;42.89;96652.09;5014212;28;20030;-67
2023/08/24 07:45:08;;;;;;;10.20;5.30;;;;;;;32.28;44.83;96647.66;5012957;28;20032;-68
2023/08/24 07:47:34;;;;;;;10.73;5.53;;;;;;;31.57;47.16;96635.16;5014467;28;20037;-66
2023/08/24 07:49:59;;;;;;;12.05;5.65;;;;;;;32.84;44.08;96641.94;5014225;28;20045;-66
2023/08/24 07:52:27;;;;;;;10.63;5.32;;;;;;;33.48;43.10;96639.19;5013623;28;20061;-65
2023/08/24 07:54:52;;;;;;;11.05;5.20;;;;;;;33.24;43.40;96642.66;5014287;28;20376;-63
2023/08/24 07:57:17;;;;;;;13.00;5.88;;;;;;;34.58;40.42;96647.28;5014222;28;20040;-63
2023/08/24 07:59:43;;;;;;;11.48;5.10;;;;;;;35.86;38.10;96652.06;5014075;28;20475;-66
2023/08/24 08:02:09;;;;;;;12.93;4.93;;;;;;;35.74;37.73;96662.06;5013590;28;20049;-65
2023/08/24 08:04:34;;;;;;;16.35;5.80;;;;;;;36.25;36.51;96665.00;5013872;28;20061;-65
2023/08/24 08:07:00;;;;;;;15.90;5.43;;;;;;;35.91;36.56;96667.56;5014262;28;20494;-64
2023/08/24 08:09:25;;;;;;;12.20;4.88;;;;;;;37.05;35.54;96668.06;5014524;28;20272;-66
2023/08/24 08:11:51;;;;;;;10.45;5.03;;;;;;;36.85;35.06;96675.16;5014385;28;20044;-65
2023/08/24 08:14:17;;;;;;;9.50;5.10;;;;;;;36.64;35.80;96674.22;5013354;28;20022;-65
2023/08/24 08:16:42;;;;;;;10.10;5.05;;;;;;;37.08;35.03;96666.19;5013524;28;20045;-64
2023/08/24 08:19:07;;;;;;;16.88;5.90;;;;;;;33.64;40.38;96651.75;5013773;28;20045;-66
2023/08/24 08:21:33;;;;;;;13.32;5.57;;;;;;;34.60;39.91;96661.72;5012627;28;20140;-64
2023/08/24 08:23:58;;;;;;;13.10;5.07;;;;;;;35.87;37.48;96661.38;5013090;28;20033;-66
2023/08/24 08:26:24;;;;;;;13.70;5.68;;;;;;;34.35;39.60;96666.59;5013798;28;20368;-63
2023/08/24 08:28:49;;;;;;;16.30;5.25;;;;;;;32.01;44.44;96647.84;5013791;28;20079;-65
2023/08/24 08:31:15;;;;;;;16.05;5.50;;;;;;;33.12;42.95;96655.28;5012540;28;20038;-65
2023/08/24 08:33:40;;;;;;;11.13;5.05;;;;;;;33.67;41.59;96647.91;5013062;28;20038;-65
2023/08/24 08:36:06;;;;;;;12.25;5.22;;;;;;;33.64;42.68;96654.59;5012919;28;20438;-65
2023/08/24 08:38:31;;;;;;;12.45;5.50;;;;;;;35.71;38.07;96661.09;5013547;28;20034;-63
2023/08/24 08:41:02;;;;;;;10.65;4.85;;;;;;;35.36;38.76;96664.88;5013673;28;20475;-64
2023/08/24 08:43:30;;;;;;;12.88;4.85;;;;;;;36.27;36.97;96665.22;5013235;28;20036;-65
2023/08/24 08:45:56;;;;;;;13.85;5.13;;;;;;;36.89;35.71;96678.47;5013231;28;20026;-66
2023/08/24 08:48:21;;;;;;;14.77;5.80;;;;;;;37.03;35.34;96681.34;5013598;28;20040;-65
2023/08/24 08:50:49;;;;;;;13.02;6.03;;;;;;;37.72;34.22;96688.06;5013659;28;20113;-66
2023/08/24 08:53:15;;;;;;;8.40;4.73;;;;;;;37.39;34.84;96683.78;5012669;28;20079;-66
2023/08/24 08:55:41;;;;;;;13.85;5.35;;;;;;;38.09;33.50;96686.22;5013229;28;20018;-64
2023/08/24 08:58:07;;;;;;;15.00;5.93;;;;;;;37.16;34.26;96674.91;5013966;28;20048;-63
2023/08/24 09:00:33;;;;;;;15.90;5.32;;;;;;;36.11;35.82;96660.53;5014075;28;20034;-64
2023/08/24 09:02:59;;;;;;;13.77;5.78;;;;;;;36.83;35.36;96672.09;5015018;28;20036;-63
2023/08/24 09:05:26;;;;;;;15.77;5.18;;;;;;;36.74;35.70;96676.13;5013898;28;20022;-65
2023/08/24 09:07:54;;;;;;;15.50;4.70;;;;;;;37.35;33.95;96674.78;5015167;28;20108;-65
2023/08/24 09:10:20;;;;;;;12.80;5.68;;;;;;;36.78;34.07;96677.91;5013180;28;20030;-65
2023/08/24 09:12:45;;;;;;;13.18;5.10;;;;;;;36.89;34.37;96663.44;5012301;28;20041;-64
2023/08/24 09:15:11;;;;;;;15.02;4.65;;;;;;;37.04;34.07;96662.88;5012782;28;20567;-64
2023/08/24 09:17:42;;;;;;;11.07;4.95;;;;;;;37.25;33.70;96668.75;5012573;28;20029;-65
2023/08/24 09:20:09;;;;;;;15.05;5.75;;;;;;;36.18;34.57;96657.81;5012583;28;20049;-65
2023/08/24 09:22:36;;;;;;;14.57;5.53;;;;;;;36.21;35.78;96661.69;5012175;28;20498;-65
2023/08/24 09:25:03;;;;;;;12.18;5.63;;;;;;;35.75;35.54;96653.00;5012508;28;20318;-64
2023/08/24 09:27:29;;;;;;;13.45;5.38;;;;;;;35.77;35.75;96643.91;5012901;28;20448;-66
2023/08/24 09:29:54;;;;;;;16.35;5.75;;;;;;;35.73;35.52;96649.16;5011451;28;20057;-65
2023/08/24 09:32:38;;;;;;;15.88;5.68;;;;;;;34.80;37.20;96638.53;5012367;28;20156;-66
2023/08/24 09:35:08;;;;;;;18.50;6.10;;;;;;;36.02;34.95;96638.88;5012522;28;20467;-64
2023/08/24 09:37:34;;;;;;;15.77;5.68;;;;;;;36.57;33.89;96644.25;5012941;28;20041;-65
2023/08/24 09:40:07;;;;;;;15.45;6.28;;;;;;;36.32;35.74;96629.38;5012618;28;20034;-66
2023/08/24 09:42:43;;;;;;;19.08;6.20;;;;;;;35.84;37.70;96623.34;5013974;28;20029;-64
2023/08/24 09:45:12;;;;;;;12.40;5.53;;;;;;;35.53;38.24;96617.03;5012556;28;20081;-64
2023/08/24 09:47:38;;;;;;;15.75;6.78;;;;;;;35.60;39.01;96607.88;5018074;28;20034;-65
2023/08/24 09:50:05;;;;;;;12.32;6.20;;;;;;;35.33;39.25;96606.16;5023361;28;20040;-64
2023/08/24 09:52:34;;;;;;;14.68;6.50;;;;;;;35.35;39.69;96607.16;5021753;28;20406;-65
2023/08/24 09:55:05;;;;;;;;;;;;;;;35.46;39.36;96608.34;5020787;28;20145;-66
2023/08/24 09:57:41;;;;;;;14.57;6.63;;;;;;;35.61;39.22;96605.78;5020445;28;19916;-62
2023/08/24 10:00:10;;;;;;;15.05;6.85;;;;;;;35.66;39.21;96604.94;5028301;28;20695;-65
2023/08/24 10:02:39;;;;;;;17.15;6.00;;;;;;;35.73;39.22;96612.88;5019678;28;20035;-66
2023/08/24 10:05:07;;;;;;;11.82;5.97;;;;;;;36.32;37.52;96609.41;5019146;28;20113;-66
2023/08/24 10:07:33;;;;;;;14.45;5.63;;;;;;;36.02;38.10;96609.63;5019646;28;20041;-65
2023/08/24 10:10:03;;;;;;;12.65;5.80;;;;;;;35.69;38.37;96597.38;5020118;28;20065;-65
2023/08/24 10:12:32;;;;;;;13.55;5.60;;;;;;;35.59;39.45;96594.91;5019269;28;20026;-64
2023/08/24 10:15:06;;;;;;;12.75;5.85;;;;;;;35.26;39.49;96599.00;5019185;28;20033;-65
2023/08/24 10:17:36;;;;;;;11.55;5.75;;;;;;;34.71;40.92;96599.06;5019838;28;20390;-65
2023/08/24 10:20:04;;;;;;;;;;;;;;;35.04;40.37;96597.94;5019367;28;20036;-66
2023/08/24 10:22:30;;;;;;;15.90;6.78;;;;;;;34.47;41.05;96600.56;5018922;28;19909;-65
2023/08/24 10:24:56;;;;;;;13.35;6.07;;;;;;;33.77;42.49;96590.78;5018708;28;20032;-66
2023/08/24 10:27:27;;;;;;;15.90;6.93;;;;;;;33.82;42.14;96585.06;5018647;28;20116;-65
2023/08/24 10:29:52;;;;;;;14.38;6.60;;;;;;;33.62;42.68;96579.72;5018809;28;20112;-65
2023/08/24 10:32:21;;;;;;;14.57;6.47;;;;;;;33.44;42.76;96572.63;5018338;28;20502;-66
2023/08/24 10:34:46;;;;;;;16.50;6.90;;;;;;;32.94;43.92;96569.47;5019156;28;20036;-66
2023/08/24 10:37:12;;;;;;;14.23;6.97;;;;;;;33.07;43.73;96571.72;5018602;28;20534;-66
2023/08/24 10:39:45;;;;;;;13.73;6.53;;;;;;;33.44;43.06;96566.94;5018703;28;20080;-67
2023/08/24 10:42:12;;;;;;;16.50;6.82;;;;;;;33.32;43.10;96567.00;5018153;28;20033;-66
2023/08/24 10:44:39;;;;;;;23.63;7.43;;;;;;;33.05;43.51;96567.88;5018523;28;20061;-65
2023/08/24 10:47:13;;;;;;;17.52;7.75;;;;;;;33.10;43.39;96553.69;5018535;28;20058;-66
2023/08/24 10:49:39;;;;;;;13.30;6.35;;;;;;;32.98;44.04;96551.41;5018550;28;20399;-66
2023/08/24 10:52:18;;;;;;;13.63;6.60;;;;;;;33.43;42.91;96551.22;5018560;28;20124;-65
2023/08/24 10:54:48;;;;;;;15.07;6.22;;;;;;;33.46;42.85;96544.50;5018742;28;20085;-65
2023/08/24 10:57:29;;;;;;;19.40;7.88;;;;;;;33.62;42.61;96539.97;5017112;28;20491;-64
2023/08/24 11:00:10;;;;;;;14.07;6.20;;;;;;;34.06;41.84;96550.25;5014755;28;20113;-66
2023/08/24 11:02:45;;;;;;;16.73;6.38;;;;;;;33.99;41.66;96545.16;5014728;28;20026;-66
2023/08/24 11:05:24;;;;;;;16.30;6.80;;;;;;;34.04;41.51;96547.19;5015324;28;20376;-66
2023/08/24 11:07:50;;;;;;;10.32;6.43;;;;;;;33.89;42.03;96544.72;5015125;28;20026;-66
2023/08/24 11:10:16;;;;;;;15.10;6.28;;;;;;;33.55;42.23;96543.38;5014407;28;20400;-67
2023/08/24 11:13:03;;;;;;;20.90;6.90;;;;;;;33.32;43.21;96532.94;5015087;28;20029;-67
2023/08/24 11:15:40;;;;;;;15.40;6.20;;;;;;;33.47;43.48;96526.91;5014535;28;20085;-68
2023/08/24 11:18:19;;;;;;;16.83;7.68;;;;;;;33.68;42.85;96526.56;5015783;28;20038;-67
2023/08/24 11:20:46;;;;;;;18.73;6.75;;;;;;;33.52;42.69;96528.19;5015868;28;20026;-68
2023/08/24 11:23:15;;;;;;;19.42;6.68;;;;;;;33.10;44.05;96516.78;5013396;28;20038;-68
2023/08/24 11:25:40;;;;;;;12.88;6.65;;;;;;;33.08;43.63;96510.09;5016052;28;20041;-68